sensor_id;sensor_type;location;lat;lon;timestamp;P1;durP1;ratioP1;P2;durP2;ratioP2
5882;SDS011;2967;51.488;6.618;2022-08-21T00:04:38;9.40;;;4.20;;
5882;SDS011;2967;51.488;6.618;2022-08-21T00:09:56;5.20;;;3.57;;
5882;SDS011;2967;51.488;6.618;2022-08-21T00:15:01;12.57;;;4.30;;
5882;SDS011;2967;51.488;6.618;2022-08-21T00:20:06;7.00;;;4.20;;
5882;SDS011;2967;51.488;6.618;2022-08-21T00:25:12;5.53;;;3.93;;
5882;SDS011;2967;51.488;6.618;2022-08-21T00:30:17;10.90;;;3.83;;
5882;SDS011;2967;51.488;6.618;2022-08-21T00:35:26;8.17;;;3.80;;
5882;SDS011;2967;51.488;6.618;2022-08-21T00:40:32;8.53;;;3.60;;
5882;SDS011;2967;51.488;6.618;2022-08-21T00:45:39;6.03;;;3.47;;
5882;SDS011;2967;51.488;6.618;2022-08-21T00:50:43;6.67;;;3.80;;
5882;SDS011;2967;51.488;6.618;2022-08-21T00:55:48;6.17;;;4.20;;
5882;SDS011;2967;51.488;6.618;2022-08-21T01:00:58;5.70;;;3.70;;
5882;SDS011;2967;51.488;6.618;2022-08-21T01:06:08;6.37;;;3.30;;
5882;SDS011;2967;51.488;6.618;2022-08-21T01:11:11;11.47;;;4.40;;
5882;SDS011;2967;51.488;6.618;2022-08-21T01:16:17;4.37;;;3.40;;
5882;SDS011;2967;51.488;6.618;2022-08-21T01:21:25;8.10;;;4.40;;
5882;SDS011;2967;51.488;6.618;2022-08-21T01:26:30;8.53;;;4.40;;
5882;SDS011;2967;51.488;6.618;2022-08-21T01:31:35;6.47;;;4.67;;
5882;SDS011;2967;51.488;6.618;2022-08-21T01:36:39;6.87;;;4.50;;
5882;SDS011;2967;51.488;6.618;2022-08-21T01:41:42;6.20;;;4.17;;
5882;SDS011;2967;51.488;6.618;2022-08-21T01:46:46;9.20;;;4.73;;
5882;SDS011;2967;51.488;6.618;2022-08-21T01:51:50;5.70;;;4.00;;
5882;SDS011;2967;51.488;6.618;2022-08-21T01:56:53;7.07;;;4.00;;
5882;SDS011;2967;51.488;6.618;2022-08-21T02:01:57;7.40;;;3.87;;
5882;SDS011;2967;51.488;6.618;2022-08-21T02:07:01;5.80;;;4.27;;
5882;SDS011;2967;51.488;6.618;2022-08-21T02:12:08;4.97;;;3.87;;
5882;SDS011;2967;51.488;6.618;2022-08-21T02:17:12;5.17;;;4.17;;
5882;SDS011;2967;51.488;6.618;2022-08-21T02:22:16;8.87;;;4.50;;
5882;SDS011;2967;51.488;6.618;2022-08-21T02:27:19;6.53;;;3.80;;
5882;SDS011;2967;51.488;6.618;2022-08-21T02:32:27;6.63;;;3.73;;
5882;SDS011;2967;51.488;6.618;2022-08-21T02:37:31;5.83;;;4.13;;
5882;SDS011;2967;51.488;6.618;2022-08-21T02:42:34;5.37;;;4.07;;
5882;SDS011;2967;51.488;6.618;2022-08-21T02:47:38;8.53;;;4.77;;
5882;SDS011;2967;51.488;6.618;2022-08-21T02:52:45;7.33;;;4.27;;
5882;SDS011;2967;51.488;6.618;2022-08-21T02:57:52;6.67;;;4.07;;
5882;SDS011;2967;51.488;6.618;2022-08-21T03:02:56;5.13;;;3.70;;
5882;SDS011;2967;51.488;6.618;2022-08-21T03:08:01;7.90;;;4.00;;
5882;SDS011;2967;51.488;6.618;2022-08-21T03:13:05;7.07;;;4.40;;
5882;SDS011;2967;51.488;6.618;2022-08-21T03:18:09;10.73;;;4.70;;
5882;SDS011;2967;51.488;6.618;2022-08-21T03:23:16;7.50;;;4.70;;
5882;SDS011;2967;51.488;6.618;2022-08-21T03:28:20;7.73;;;4.50;;
5882;SDS011;2967;51.488;6.618;2022-08-21T03:33:25;8.37;;;4.60;;
5882;SDS011;2967;51.488;6.618;2022-08-21T03:38:30;6.93;;;4.77;;
5882;SDS011;2967;51.488;6.618;2022-08-21T03:43:34;14.63;;;5.57;;
5882;SDS011;2967;51.488;6.618;2022-08-21T03:48:38;7.63;;;5.67;;
5882;SDS011;2967;51.488;6.618;2022-08-21T03:53:44;10.10;;;4.93;;
5882;SDS011;2967;51.488;6.618;2022-08-21T03:58:46;9.27;;;5.47;;
5882;SDS011;2967;51.488;6.618;2022-08-21T04:03:49;7.20;;;5.63;;
5882;SDS011;2967;51.488;6.618;2022-08-21T04:08:53;8.97;;;5.70;;
5882;SDS011;2967;51.488;6.618;2022-08-21T04:13:57;7.20;;;5.40;;
5882;SDS011;2967;51.488;6.618;2022-08-21T04:18:59;11.83;;;6.60;;
5882;SDS011;2967;51.488;6.618;2022-08-21T04:24:04;9.30;;;5.40;;
5882;SDS011;2967;51.488;6.618;2022-08-21T04:29:08;6.37;;;5.77;;
5882;SDS011;2967;51.488;6.618;2022-08-21T04:34:11;6.13;;;4.93;;
5882;SDS011;2967;51.488;6.618;2022-08-21T04:39:16;8.00;;;6.40;;
5882;SDS011;2967;51.488;6.618;2022-08-21T04:44:19;7.80;;;6.20;;
5882;SDS011;2967;51.488;6.618;2022-08-21T04:49:22;6.13;;;5.53;;
5882;SDS011;2967;51.488;6.618;2022-08-21T04:54:26;11.57;;;5.83;;
5882;SDS011;2967;51.488;6.618;2022-08-21T04:59:30;7.30;;;6.13;;
5882;SDS011;2967;51.488;6.618;2022-08-21T05:04:37;11.00;;;6.17;;
5882;SDS011;2967;51.488;6.618;2022-08-21T05:09:46;9.20;;;7.53;;
5882;SDS011;2967;51.488;6.618;2022-08-21T05:14:48;9.27;;;7.13;;
5882;SDS011;2967;51.488;6.618;2022-08-21T05:19:51;13.50;;;7.17;;
5882;SDS011;2967;51.488;6.618;2022-08-21T05:24:56;11.43;;;7.23;;
5882;SDS011;2967;51.488;6.618;2022-08-21T05:29:59;11.90;;;7.80;;
5882;SDS011;2967;51.488;6.618;2022-08-21T05:35:03;10.23;;;7.70;;
5882;SDS011;2967;51.488;6.618;2022-08-21T05:40:09;18.97;;;8.87;;
5882;SDS011;2967;51.488;6.618;2022-08-21T05:45:24;11.73;;;7.40;;
5882;SDS011;2967;51.488;6.618;2022-08-21T05:50:45;11.93;;;7.03;;
5882;SDS011;2967;51.488;6.618;2022-08-21T05:55:51;7.97;;;7.10;;
5882;SDS011;2967;51.488;6.618;2022-08-21T06:00:57;7.97;;;6.67;;
5882;SDS011;2967;51.488;6.618;2022-08-21T06:06:01;13.40;;;7.60;;
5882;SDS011;2967;51.488;6.618;2022-08-21T06:11:06;12.27;;;7.47;;
5882;SDS011;2967;51.488;6.618;2022-08-21T06:16:11;16.33;;;7.07;;
5882;SDS011;2967;51.488;6.618;2022-08-21T06:21:16;10.83;;;6.40;;
5882;SDS011;2967;51.488;6.618;2022-08-21T06:26:20;15.90;;;12.43;;
5882;SDS011;2967;51.488;6.618;2022-08-21T06:31:25;10.97;;;6.37;;
5882;SDS011;2967;51.488;6.618;2022-08-21T06:36:29;9.47;;;5.53;;
5882;SDS011;2967;51.488;6.618;2022-08-21T06:41:33;9.17;;;5.53;;
5882;SDS011;2967;51.488;6.618;2022-08-21T06:46:39;14.33;;;5.80;;
5882;SDS011;2967;51.488;6.618;2022-08-21T06:51:45;13.00;;;6.27;;
5882;SDS011;2967;51.488;6.618;2022-08-21T06:56:49;7.73;;;4.40;;
5882;SDS011;2967;51.488;6.618;2022-08-21T07:01:52;12.03;;;5.10;;
5882;SDS011;2967;51.488;6.618;2022-08-21T07:06:54;16.23;;;5.40;;
5882;SDS011;2967;51.488;6.618;2022-08-21T07:11:58;9.27;;;4.27;;
5882;SDS011;2967;51.488;6.618;2022-08-21T07:17:02;8.43;;;3.73;;
5882;SDS011;2967;51.488;6.618;2022-08-21T07:22:05;8.30;;;3.43;;
5882;SDS011;2967;51.488;6.618;2022-08-21T07:27:12;7.80;;;3.40;;
5882;SDS011;2967;51.488;6.618;2022-08-21T07:32:19;8.80;;;3.57;;
5882;SDS011;2967;51.488;6.618;2022-08-21T07:37:23;12.33;;;3.50;;
5882;SDS011;2967;51.488;6.618;2022-08-21T07:42:27;8.30;;;3.57;;
5882;SDS011;2967;51.488;6.618;2022-08-21T07:47:31;9.10;;;3.53;;
5882;SDS011;2967;51.488;6.618;2022-08-21T07:52:43;7.67;;;2.80;;
5882;SDS011;2967;51.488;6.618;2022-08-21T07:57:51;6.53;;;2.80;;
5882;SDS011;2967;51.488;6.618;2022-08-21T08:02:54;5.40;;;2.37;;
5882;SDS011;2967;51.488;6.618;2022-08-21T08:08:04;8.00;;;2.70;;
5882;SDS011;2967;51.488;6.618;2022-08-21T08:13:09;4.77;;;2.00;;
5882;SDS011;2967;51.488;6.618;2022-08-21T08:18:12;5.17;;;2.10;;
5882;SDS011;2967;51.488;6.618;2022-08-21T08:23:15;6.50;;;2.03;;
5882;SDS011;2967;51.488;6.618;2022-08-21T08:28:19;5.30;;;2.10;;
5882;SDS011;2967;51.488;6.618;2022-08-21T08:33:25;4.27;;;2.00;;
5882;SDS011;2967;51.488;6.618;2022-08-21T08:38:29;8.50;;;2.50;;
5882;SDS011;2967;51.488;6.618;2022-08-21T08:43:34;5.77;;;1.93;;
5882;SDS011;2967;51.488;6.618;2022-08-21T08:48:41;6.87;;;2.23;;
5882;SDS011;2967;51.488;6.618;2022-08-21T08:53:55;9.10;;;2.10;;
5882;SDS011;2967;51.488;6.618;2022-08-21T08:59:07;5.80;;;2.10;;
5882;SDS011;2967;51.488;6.618;2022-08-21T09:04:15;6.87;;;2.20;;
5882;SDS011;2967;51.488;6.618;2022-08-21T09:09:28;7.80;;;2.60;;
5882;SDS011;2967;51.488;6.618;2022-08-21T09:14:41;5.57;;;2.33;;
5882;SDS011;2967;51.488;6.618;2022-08-21T09:19:57;8.97;;;2.67;;
5882;SDS011;2967;51.488;6.618;2022-08-21T09:25:15;9.60;;;2.30;;
5882;SDS011;2967;51.488;6.618;2022-08-21T09:30:27;7.40;;;2.40;;
5882;SDS011;2967;51.488;6.618;2022-08-21T09:35:32;7.83;;;2.60;;
5882;SDS011;2967;51.488;6.618;2022-08-21T09:40:39;9.03;;;2.50;;
5882;SDS011;2967;51.488;6.618;2022-08-21T09:45:46;5.13;;;2.33;;
5882;SDS011;2967;51.488;6.618;2022-08-21T09:50:51;6.50;;;2.70;;
5882;SDS011;2967;51.488;6.618;2022-08-21T09:55:56;6.60;;;2.53;;
5882;SDS011;2967;51.488;6.618;2022-08-21T10:01:24;7.87;;;2.67;;
5882;SDS011;2967;51.488;6.618;2022-08-21T10:06:27;12.67;;;2.90;;
5882;SDS011;2967;51.488;6.618;2022-08-21T10:11:31;4.93;;;2.40;;
5882;SDS011;2967;51.488;6.618;2022-08-21T10:16:39;3.20;;;1.73;;
5882;SDS011;2967;51.488;6.618;2022-08-21T10:21:53;7.47;;;1.80;;
5882;SDS011;2967;51.488;6.618;2022-08-21T10:27:06;5.30;;;2.17;;
5882;SDS011;2967;51.488;6.618;2022-08-21T10:32:22;7.67;;;2.13;;
5882;SDS011;2967;51.488;6.618;2022-08-21T10:37:49;4.67;;;1.70;;
5882;SDS011;2967;51.488;6.618;2022-08-21T10:43:06;4.47;;;2.03;;
5882;SDS011;2967;51.488;6.618;2022-08-21T10:48:25;3.17;;;1.83;;
5882;SDS011;2967;51.488;6.618;2022-08-21T10:53:36;6.83;;;1.60;;
5882;SDS011;2967;51.488;6.618;2022-08-21T10:59:04;5.00;;;1.60;;
5882;SDS011;2967;51.488;6.618;2022-08-21T11:04:30;2.70;;;1.40;;
5882;SDS011;2967;51.488;6.618;2022-08-21T11:09:50;4.50;;;1.50;;
5882;SDS011;2967;51.488;6.618;2022-08-21T11:14:58;4.27;;;2.07;;
5882;SDS011;2967;51.488;6.618;2022-08-21T11:20:10;3.33;;;1.70;;
5882;SDS011;2967;51.488;6.618;2022-08-21T11:25:17;7.73;;;1.83;;
5882;SDS011;2967;51.488;6.618;2022-08-21T11:30:30;4.07;;;1.50;;
5882;SDS011;2967;51.488;6.618;2022-08-21T11:35:46;6.10;;;1.80;;
5882;SDS011;2967;51.488;6.618;2022-08-21T11:41:01;4.00;;;1.90;;
5882;SDS011;2967;51.488;6.618;2022-08-21T11:46:13;4.70;;;1.93;;
5882;SDS011;2967;51.488;6.618;2022-08-21T11:51:28;3.13;;;1.60;;
5882;SDS011;2967;51.488;6.618;2022-08-21T11:56:39;3.70;;;1.90;;
5882;SDS011;2967;51.488;6.618;2022-08-21T12:01:48;5.20;;;1.53;;
5882;SDS011;2967;51.488;6.618;2022-08-21T12:06:54;7.00;;;1.70;;
5882;SDS011;2967;51.488;6.618;2022-08-21T12:12:02;4.17;;;1.50;;
5882;SDS011;2967;51.488;6.618;2022-08-21T12:17:08;3.70;;;1.80;;
5882;SDS011;2967;51.488;6.618;2022-08-21T12:22:22;2.73;;;1.60;;
5882;SDS011;2967;51.488;6.618;2022-08-21T12:27:44;5.10;;;1.37;;
5882;SDS011;2967;51.488;6.618;2022-08-21T12:32:55;5.30;;;1.60;;
5882;SDS011;2967;51.488;6.618;2022-08-21T12:38:02;2.70;;;1.63;;
5882;SDS011;2967;51.488;6.618;2022-08-21T12:43:13;11.60;;;6.60;;
5882;SDS011;2967;51.488;6.618;2022-08-21T12:48:20;3.70;;;1.27;;
5882;SDS011;2967;51.488;6.618;2022-08-21T12:53:29;5.70;;;1.60;;
5882;SDS011;2967;51.488;6.618;2022-08-21T12:58:35;3.47;;;1.40;;
5882;SDS011;2967;51.488;6.618;2022-08-21T13:03:40;2.53;;;1.33;;
5882;SDS011;2967;51.488;6.618;2022-08-21T13:08:45;2.20;;;1.70;;
5882;SDS011;2967;51.488;6.618;2022-08-21T13:13:50;5.40;;;1.87;;
5882;SDS011;2967;51.488;6.618;2022-08-21T13:18:56;3.10;;;1.60;;
5882;SDS011;2967;51.488;6.618;2022-08-21T13:24:15;5.73;;;1.70;;
5882;SDS011;2967;51.488;6.618;2022-08-21T13:29:39;3.20;;;1.90;;
5882;SDS011;2967;51.488;6.618;2022-08-21T13:34:48;8.53;;;1.80;;
5882;SDS011;2967;51.488;6.618;2022-08-21T13:39:56;3.23;;;1.60;;
5882;SDS011;2967;51.488;6.618;2022-08-21T13:45:00;3.10;;;1.47;;
5882;SDS011;2967;51.488;6.618;2022-08-21T13:50:03;7.17;;;1.60;;
5882;SDS011;2967;51.488;6.618;2022-08-21T13:55:13;4.10;;;1.53;;
5882;SDS011;2967;51.488;6.618;2022-08-21T14:00:25;3.70;;;1.73;;
5882;SDS011;2967;51.488;6.618;2022-08-21T14:05:31;2.17;;;1.40;;
5882;SDS011;2967;51.488;6.618;2022-08-21T14:10:41;4.77;;;1.53;;
5882;SDS011;2967;51.488;6.618;2022-08-21T14:15:46;3.80;;;1.70;;
5882;SDS011;2967;51.488;6.618;2022-08-21T14:21:04;3.10;;;1.63;;
5882;SDS011;2967;51.488;6.618;2022-08-21T14:26:10;4.33;;;2.00;;
5882;SDS011;2967;51.488;6.618;2022-08-21T14:31:14;7.10;;;2.23;;
5882;SDS011;2967;51.488;6.618;2022-08-21T14:36:20;4.03;;;1.57;;
5882;SDS011;2967;51.488;6.618;2022-08-21T14:41:25;7.83;;;1.63;;
5882;SDS011;2967;51.488;6.618;2022-08-21T14:46:33;8.33;;;2.30;;
5882;SDS011;2967;51.488;6.618;2022-08-21T14:51:57;2.93;;;1.40;;
5882;SDS011;2967;51.488;6.618;2022-08-21T14:57:04;5.00;;;4.30;;
5882;SDS011;2967;51.488;6.618;2022-08-21T15:02:12;5.13;;;2.17;;
5882;SDS011;2967;51.488;6.618;2022-08-21T15:07:15;3.50;;;1.70;;
5882;SDS011;2967;51.488;6.618;2022-08-21T15:12:20;6.07;;;1.50;;
5882;SDS011;2967;51.488;6.618;2022-08-21T15:17:23;6.67;;;1.73;;
5882;SDS011;2967;51.488;6.618;2022-08-21T15:22:26;5.33;;;1.60;;
5882;SDS011;2967;51.488;6.618;2022-08-21T15:27:30;4.03;;;1.90;;
5882;SDS011;2967;51.488;6.618;2022-08-21T15:32:33;4.90;;;1.70;;
5882;SDS011;2967;51.488;6.618;2022-08-21T15:37:36;4.10;;;1.87;;
5882;SDS011;2967;51.488;6.618;2022-08-21T15:42:41;4.20;;;1.60;;
5882;SDS011;2967;51.488;6.618;2022-08-21T15:47:45;3.37;;;1.57;;
5882;SDS011;2967;51.488;6.618;2022-08-21T15:52:48;5.27;;;1.60;;
5882;SDS011;2967;51.488;6.618;2022-08-21T15:57:57;3.23;;;1.97;;
5882;SDS011;2967;51.488;6.618;2022-08-21T16:03:06;4.23;;;1.90;;
5882;SDS011;2967;51.488;6.618;2022-08-21T16:08:13;4.33;;;1.80;;
5882;SDS011;2967;51.488;6.618;2022-08-21T16:13:18;2.57;;;1.40;;
5882;SDS011;2967;51.488;6.618;2022-08-21T16:18:25;2.80;;;1.47;;
5882;SDS011;2967;51.488;6.618;2022-08-21T16:23:29;2.00;;;1.40;;
5882;SDS011;2967;51.488;6.618;2022-08-21T16:28:33;4.50;;;2.00;;
5882;SDS011;2967;51.488;6.618;2022-08-21T16:33:40;5.13;;;2.00;;
5882;SDS011;2967;51.488;6.618;2022-08-21T16:38:45;3.70;;;1.80;;
5882;SDS011;2967;51.488;6.618;2022-08-21T16:43:50;3.70;;;2.20;;
5882;SDS011;2967;51.488;6.618;2022-08-21T16:48:53;4.30;;;2.10;;
5882;SDS011;2967;51.488;6.618;2022-08-21T16:53:56;4.40;;;1.77;;
5882;SDS011;2967;51.488;6.618;2022-08-21T16:59:02;7.33;;;2.40;;
5882;SDS011;2967;51.488;6.618;2022-08-21T17:04:06;7.70;;;2.57;;
5882;SDS011;2967;51.488;6.618;2022-08-21T17:09:09;5.77;;;2.00;;
5882;SDS011;2967;51.488;6.618;2022-08-21T17:14:15;5.03;;;2.13;;
5882;SDS011;2967;51.488;6.618;2022-08-21T17:19:20;5.40;;;2.10;;
5882;SDS011;2967;51.488;6.618;2022-08-21T17:24:23;5.57;;;1.87;;
5882;SDS011;2967;51.488;6.618;2022-08-21T17:29:29;5.80;;;2.10;;
5882;SDS011;2967;51.488;6.618;2022-08-21T17:34:39;4.30;;;1.97;;
5882;SDS011;2967;51.488;6.618;2022-08-21T17:39:42;3.37;;;2.03;;
5882;SDS011;2967;51.488;6.618;2022-08-21T17:44:46;9.50;;;2.20;;
5882;SDS011;2967;51.488;6.618;2022-08-21T17:49:49;3.50;;;1.80;;
5882;SDS011;2967;51.488;6.618;2022-08-21T17:54:52;5.40;;;1.90;;
5882;SDS011;2967;51.488;6.618;2022-08-21T17:59:56;14.13;;;2.60;;
5882;SDS011;2967;51.488;6.618;2022-08-21T18:10:31;3.87;;;2.47;;
5882;SDS011;2967;51.488;6.618;2022-08-21T18:15:35;6.37;;;2.80;;
5882;SDS011;2967;51.488;6.618;2022-08-21T18:20:43;4.23;;;2.20;;
5882;SDS011;2967;51.488;6.618;2022-08-21T18:25:51;4.40;;;2.10;;
5882;SDS011;2967;51.488;6.618;2022-08-21T18:30:59;7.83;;;2.53;;
5882;SDS011;2967;51.488;6.618;2022-08-21T18:36:02;5.30;;;2.37;;
5882;SDS011;2967;51.488;6.618;2022-08-21T18:41:06;9.93;;;2.87;;
5882;SDS011;2967;51.488;6.618;2022-08-21T18:46:12;4.50;;;1.97;;
5882;SDS011;2967;51.488;6.618;2022-08-21T18:51:16;6.63;;;2.90;;
5882;SDS011;2967;51.488;6.618;2022-08-21T18:56:19;6.77;;;2.33;;
5882;SDS011;2967;51.488;6.618;2022-08-21T19:01:27;7.83;;;2.30;;
5882;SDS011;2967;51.488;6.618;2022-08-21T19:06:30;6.43;;;3.10;;
5882;SDS011;2967;51.488;6.618;2022-08-21T19:11:39;7.83;;;3.17;;
5882;SDS011;2967;51.488;6.618;2022-08-21T19:16:46;10.87;;;3.00;;
5882;SDS011;2967;51.488;6.618;2022-08-21T19:21:51;5.50;;;2.40;;
5882;SDS011;2967;51.488;6.618;2022-08-21T19:27:19;4.50;;;2.20;;
5882;SDS011;2967;51.488;6.618;2022-08-21T19:32:27;9.67;;;2.60;;
5882;SDS011;2967;51.488;6.618;2022-08-21T19:37:34;8.83;;;2.40;;
5882;SDS011;2967;51.488;6.618;2022-08-21T19:42:38;7.37;;;2.70;;
5882;SDS011;2967;51.488;6.618;2022-08-21T19:47:46;6.23;;;2.00;;
5882;SDS011;2967;51.488;6.618;2022-08-21T19:52:51;6.10;;;2.17;;
5882;SDS011;2967;51.488;6.618;2022-08-21T19:57:55;5.77;;;2.27;;
5882;SDS011;2967;51.488;6.618;2022-08-21T20:03:03;7.93;;;2.43;;
5882;SDS011;2967;51.488;6.618;2022-08-21T20:08:08;6.37;;;2.37;;
5882;SDS011;2967;51.488;6.618;2022-08-21T20:13:20;5.00;;;2.20;;
5882;SDS011;2967;51.488;6.618;2022-08-21T20:18:25;5.70;;;2.33;;
5882;SDS011;2967;51.488;6.618;2022-08-21T20:23:32;2.80;;;1.80;;
5882;SDS011;2967;51.488;6.618;2022-08-21T20:28:35;6.43;;;2.10;;
5882;SDS011;2967;51.488;6.618;2022-08-21T20:34:00;8.10;;;2.00;;
5882;SDS011;2967;51.488;6.618;2022-08-21T20:39:03;7.20;;;2.37;;
5882;SDS011;2967;51.488;6.618;2022-08-21T20:44:12;9.70;;;2.43;;
5882;SDS011;2967;51.488;6.618;2022-08-21T20:49:18;6.47;;;3.10;;
5882;SDS011;2967;51.488;6.618;2022-08-21T20:54:27;5.63;;;2.40;;
5882;SDS011;2967;51.488;6.618;2022-08-21T20:59:39;2.60;;;1.80;;
5882;SDS011;2967;51.488;6.618;2022-08-21T21:04:53;7.67;;;2.47;;
5882;SDS011;2967;51.488;6.618;2022-08-21T21:09:59;6.63;;;2.80;;
5882;SDS011;2967;51.488;6.618;2022-08-21T21:15:08;5.17;;;2.20;;
5882;SDS011;2967;51.488;6.618;2022-08-21T21:20:18;6.43;;;2.87;;
5882;SDS011;2967;51.488;6.618;2022-08-21T21:25:28;5.37;;;2.13;;
5882;SDS011;2967;51.488;6.618;2022-08-21T21:30:44;5.03;;;2.20;;
5882;SDS011;2967;51.488;6.618;2022-08-21T21:36:02;7.27;;;2.53;;
5882;SDS011;2967;51.488;6.618;2022-08-21T21:41:21;4.87;;;1.90;;
5882;SDS011;2967;51.488;6.618;2022-08-21T21:46:31;4.70;;;2.50;;
5882;SDS011;2967;51.488;6.618;2022-08-21T21:51:44;5.40;;;2.27;;
5882;SDS011;2967;51.488;6.618;2022-08-21T21:57:02;10.03;;;2.80;;
5882;SDS011;2967;51.488;6.618;2022-08-21T22:02:15;6.60;;;2.97;;
5882;SDS011;2967;51.488;6.618;2022-08-21T22:07:35;7.43;;;2.47;;
5882;SDS011;2967;51.488;6.618;2022-08-21T22:12:48;5.83;;;2.57;;
5882;SDS011;2967;51.488;6.618;2022-08-21T22:18:17;5.40;;;2.77;;
5882;SDS011;2967;51.488;6.618;2022-08-21T22:23:27;7.00;;;2.63;;
5882;SDS011;2967;51.488;6.618;2022-08-21T22:28:34;5.37;;;2.10;;
5882;SDS011;2967;51.488;6.618;2022-08-21T22:33:58;7.07;;;2.73;;
5882;SDS011;2967;51.488;6.618;2022-08-21T22:39:06;13.53;;;3.30;;
5882;SDS011;2967;51.488;6.618;2022-08-21T22:44:22;9.47;;;2.90;;
5882;SDS011;2967;51.488;6.618;2022-08-21T22:49:47;7.00;;;3.13;;
5882;SDS011;2967;51.488;6.618;2022-08-21T22:54:56;4.70;;;2.87;;
5882;SDS011;2967;51.488;6.618;2022-08-21T23:00:05;6.80;;;3.07;;
5882;SDS011;2967;51.488;6.618;2022-08-21T23:05:20;10.83;;;2.90;;
5882;SDS011;2967;51.488;6.618;2022-08-21T23:10:27;7.27;;;3.33;;
5882;SDS011;2967;51.488;6.618;2022-08-21T23:15:33;9.50;;;2.97;;
5882;SDS011;2967;51.488;6.618;2022-08-21T23:20:45;8.50;;;2.67;;
5882;SDS011;2967;51.488;6.618;2022-08-21T23:26:15;7.03;;;3.00;;
5882;SDS011;2967;51.488;6.618;2022-08-21T23:31:24;8.40;;;2.90;;
5882;SDS011;2967;51.488;6.618;2022-08-21T23:36:36;4.80;;;2.63;;
5882;SDS011;2967;51.488;6.618;2022-08-21T23:42:10;5.43;;;2.90;;
5882;SDS011;2967;51.488;6.618;2022-08-21T23:47:30;5.43;;;2.50;;
5882;SDS011;2967;51.488;6.618;2022-08-21T23:52:46;6.87;;;3.20;;
5882;SDS011;2967;51.488;6.618;2022-08-21T23:58:09;9.23;;;2.90;;
